sensor_id;sensor_type;location;lat;lon;timestamp;temperature;humidity
9293;DHT22;69930;48.232;12.384;2024-02-16T00:01:58;6.90;99.90
9293;DHT22;69930;48.232;12.384;2024-02-16T00:04:25;6.90;99.90
9293;DHT22;69930;48.232;12.384;2024-02-16T00:06:52;6.90;99.90
9293;DHT22;69930;48.232;12.384;2024-02-16T00:09:19;6.90;99.90
9293;DHT22;69930;48.232;12.384;2024-02-16T00:11:47;6.90;99.90
9293;DHT22;69930;48.232;12.384;2024-02-16T00:14:16;6.90;99.90
9293;DHT22;69930;48.232;12.384;2024-02-16T00:16:43;6.80;99.90
9293;DHT22;69930;48.232;12.384;2024-02-16T00:19:10;6.80;99.90
9293;DHT22;69930;48.232;12.384;2024-02-16T00:21:37;6.80;99.90
9293;DHT22;69930;48.232;12.384;2024-02-16T00:24:07;6.80;99.90
9293;DHT22;69930;48.232;12.384;2024-02-16T00:26:35;6.70;99.90
9293;DHT22;69930;48.232;12.384;2024-02-16T00:29:03;6.70;99.90
9293;DHT22;69930;48.232;12.384;2024-02-16T00:31:30;6.70;99.90
9293;DHT22;69930;48.232;12.384;2024-02-16T00:33:57;6.60;99.90
9293;DHT22;69930;48.232;12.384;2024-02-16T00:36:26;6.60;99.90
9293;DHT22;69930;48.232;12.384;2024-02-16T00:38:53;6.60;99.90
9293;DHT22;69930;48.232;12.384;2024-02-16T00:41:22;6.50;99.90
9293;DHT22;69930;48.232;12.384;2024-02-16T00:43:50;6.50;99.90
9293;DHT22;69930;48.232;12.384;2024-02-16T00:46:19;6.50;99.90
9293;DHT22;69930;48.232;12.384;2024-02-16T00:48:48;6.50;99.90
9293;DHT22;69930;48.232;12.384;2024-02-16T00:51:16;6.40;99.90
9293;DHT22;69930;48.232;12.384;2024-02-16T00:53:43;6.30;99.90
9293;DHT22;69930;48.232;12.384;2024-02-16T00:56:10;6.20;99.90
9293;DHT22;69930;48.232;12.384;2024-02-16T00:58:39;6.20;99.90
9293;DHT22;69930;48.232;12.384;2024-02-16T01:01:08;6.10;99.90
9293;DHT22;69930;48.232;12.384;2024-02-16T01:03:38;6.00;99.90
9293;DHT22;69930;48.232;12.384;2024-02-16T01:06:06;5.90;99.90
9293;DHT22;69930;48.232;12.384;2024-02-16T01:08:34;5.90;99.90
9293;DHT22;69930;48.232;12.384;2024-02-16T01:11:01;5.80;99.90
9293;DHT22;69930;48.232;12.384;2024-02-16T01:13:29;5.70;99.90
9293;DHT22;69930;48.232;12.384;2024-02-16T01:15:56;5.70;99.90
9293;DHT22;69930;48.232;12.384;2024-02-16T01:18:24;5.60;99.90
9293;DHT22;69930;48.232;12.384;2024-02-16T01:20:53;5.60;99.90
9293;DHT22;69930;48.232;12.384;2024-02-16T01:23:20;5.60;99.90
9293;DHT22;69930;48.232;12.384;2024-02-16T01:25:47;5.60;99.90
9293;DHT22;69930;48.232;12.384;2024-02-16T01:28:14;5.70;99.90
9293;DHT22;69930;48.232;12.384;2024-02-16T01:30:42;5.70;99.90
9293;DHT22;69930;48.232;12.384;2024-02-16T01:33:12;5.70;99.90
9293;DHT22;69930;48.232;12.384;2024-02-16T01:35:39;5.70;99.90
9293;DHT22;69930;48.232;12.384;2024-02-16T01:38:07;5.70;99.90
9293;DHT22;69930;48.232;12.384;2024-02-16T01:40:35;5.70;99.90
9293;DHT22;69930;48.232;12.384;2024-02-16T01:43:02;5.70;99.90
9293;DHT22;69930;48.232;12.384;2024-02-16T01:45:29;5.80;99.90
9293;DHT22;69930;48.232;12.384;2024-02-16T01:47:56;5.90;99.90
9293;DHT22;69930;48.232;12.384;2024-02-16T01:50:24;5.90;99.90
9293;DHT22;69930;48.232;12.384;2024-02-16T01:52:52;5.90;99.90
9293;DHT22;69930;48.232;12.384;2024-02-16T01:55:21;6.00;99.90
9293;DHT22;69930;48.232;12.384;2024-02-16T01:57:48;6.00;99.90
9293;DHT22;69930;48.232;12.384;2024-02-16T02:00:16;6.00;99.90
9293;DHT22;69930;48.232;12.384;2024-02-16T02:02:45;6.00;99.90
9293;DHT22;69930;48.232;12.384;2024-02-16T02:05:13;5.90;99.90
9293;DHT22;69930;48.232;12.384;2024-02-16T02:07:40;5.90;99.90
9293;DHT22;69930;48.232;12.384;2024-02-16T02:10:08;5.80;99.90
9293;DHT22;69930;48.232;12.384;2024-02-16T02:12:39;5.90;99.90
9293;DHT22;69930;48.232;12.384;2024-02-16T02:15:08;5.90;99.90
9293;DHT22;69930;48.232;12.384;2024-02-16T02:17:35;5.90;99.90
9293;DHT22;69930;48.232;12.384;2024-02-16T02:20:03;5.90;99.90
9293;DHT22;69930;48.232;12.384;2024-02-16T02:22:35;6.00;99.90
9293;DHT22;69930;48.232;12.384;2024-02-16T02:25:02;6.00;99.90
9293;DHT22;69930;48.232;12.384;2024-02-16T02:27:29;6.10;99.90
9293;DHT22;69930;48.232;12.384;2024-02-16T02:29:56;6.10;99.90
9293;DHT22;69930;48.232;12.384;2024-02-16T02:32:24;6.00;99.90
9293;DHT22;69930;48.232;12.384;2024-02-16T02:34:51;6.00;99.90
9293;DHT22;69930;48.232;12.384;2024-02-16T02:37:18;5.90;99.90
9293;DHT22;69930;48.232;12.384;2024-02-16T02:39:47;5.80;99.90
9293;DHT22;69930;48.232;12.384;2024-02-16T02:42:14;5.80;99.90
9293;DHT22;69930;48.232;12.384;2024-02-16T06:15:14;5.00;99.90
9293;DHT22;69930;48.232;12.384;2024-02-16T06:17:42;5.10;99.90
9293;DHT22;69930;48.232;12.384;2024-02-16T06:20:10;5.20;99.90
9293;DHT22;69930;48.232;12.384;2024-02-16T06:22:37;5.30;99.90
9293;DHT22;69930;48.232;12.384;2024-02-16T06:25:04;5.40;99.90
9293;DHT22;69930;48.232;12.384;2024-02-16T06:27:32;5.40;99.90
9293;DHT22;69930;48.232;12.384;2024-02-16T06:29:59;5.50;99.90
9293;DHT22;69930;48.232;12.384;2024-02-16T06:32:27;5.50;99.90
9293;DHT22;69930;48.232;12.384;2024-02-16T06:34:55;5.50;99.90
9293;DHT22;69930;48.232;12.384;2024-02-16T06:37:22;5.50;99.90
9293;DHT22;69930;48.232;12.384;2024-02-16T06:39:50;5.40;99.90
9293;DHT22;69930;48.232;12.384;2024-02-16T06:42:17;5.30;99.90
9293;DHT22;69930;48.232;12.384;2024-02-16T06:44:46;5.40;99.90
9293;DHT22;69930;48.232;12.384;2024-02-16T06:47:13;5.30;99.90
9293;DHT22;69930;48.232;12.384;2024-02-16T06:49:42;5.30;99.90
9293;DHT22;69930;48.232;12.384;2024-02-16T06:52:09;5.40;99.90
9293;DHT22;69930;48.232;12.384;2024-02-16T06:54:36;5.40;99.90
9293;DHT22;69930;48.232;12.384;2024-02-16T06:57:03;5.40;99.90
9293;DHT22;69930;48.232;12.384;2024-02-16T06:59:31;5.40;99.90
9293;DHT22;69930;48.232;12.384;2024-02-16T07:01:58;5.50;99.90
9293;DHT22;69930;48.232;12.384;2024-02-16T07:04:25;5.50;99.90
9293;DHT22;69930;48.232;12.384;2024-02-16T07:06:53;5.60;99.90
9293;DHT22;69930;48.232;12.384;2024-02-16T07:09:20;5.70;99.90
9293;DHT22;69930;48.232;12.384;2024-02-16T07:11:48;5.80;99.90
9293;DHT22;69930;48.232;12.384;2024-02-16T07:14:15;5.80;99.90
9293;DHT22;69930;48.232;12.384;2024-02-16T07:16:42;5.90;99.90
9293;DHT22;69930;48.232;12.384;2024-02-16T07:19:09;5.80;99.90
9293;DHT22;69930;48.232;12.384;2024-02-16T07:21:38;5.90;99.90
9293;DHT22;69930;48.232;12.384;2024-02-16T07:24:07;5.90;99.90
9293;DHT22;69930;48.232;12.384;2024-02-16T07:26:34;6.00;99.90
9293;DHT22;69930;48.232;12.384;2024-02-16T07:29:02;6.00;99.90
9293;DHT22;69930;48.232;12.384;2024-02-16T07:31:32;6.10;99.90
9293;DHT22;69930;48.232;12.384;2024-02-16T07:33:59;6.10;99.90
9293;DHT22;69930;48.232;12.384;2024-02-16T07:36:26;5.90;99.90
9293;DHT22;69930;48.232;12.384;2024-02-16T07:38:53;6.00;99.90
9293;DHT22;69930;48.232;12.384;2024-02-16T07:41:22;5.90;99.90
9293;DHT22;69930;48.232;12.384;2024-02-16T07:43:49;5.90;99.90
9293;DHT22;69930;48.232;12.384;2024-02-16T07:46:16;5.90;99.90
9293;DHT22;69930;48.232;12.384;2024-02-16T07:48:44;5.90;99.90
9293;DHT22;69930;48.232;12.384;2024-02-16T07:51:11;6.00;99.90
9293;DHT22;69930;48.232;12.384;2024-02-16T07:53:38;6.10;99.90
9293;DHT22;69930;48.232;12.384;2024-02-16T07:56:07;6.20;99.90
9293;DHT22;69930;48.232;12.384;2024-02-16T07:58:35;6.30;99.90
9293;DHT22;69930;48.232;12.384;2024-02-16T08:01:02;6.40;99.90
9293;DHT22;69930;48.232;12.384;2024-02-16T08:03:29;6.60;99.90
9293;DHT22;69930;48.232;12.384;2024-02-16T08:05:56;6.70;99.90
9293;DHT22;69930;48.232;12.384;2024-02-16T08:08:23;6.70;99.90
9293;DHT22;69930;48.232;12.384;2024-02-16T08:10:51;6.80;99.90
9293;DHT22;69930;48.232;12.384;2024-02-16T08:13:18;7.00;99.90
9293;DHT22;69930;48.232;12.384;2024-02-16T08:15:47;7.30;99.90
9293;DHT22;69930;48.232;12.384;2024-02-16T08:18:14;7.40;99.90
9293;DHT22;69930;48.232;12.384;2024-02-16T08:20:43;7.50;99.90
9293;DHT22;69930;48.232;12.384;2024-02-16T08:23:11;7.70;99.90
9293;DHT22;69930;48.232;12.384;2024-02-16T08:25:38;7.80;99.90
9293;DHT22;69930;48.232;12.384;2024-02-16T08:28:05;7.90;99.90
9293;DHT22;69930;48.232;12.384;2024-02-16T08:30:32;8.10;99.90
9293;DHT22;69930;48.232;12.384;2024-02-16T08:33:06;8.10;99.90
9293;DHT22;69930;48.232;12.384;2024-02-16T08:35:33;8.30;99.90
9293;DHT22;69930;48.232;12.384;2024-02-16T08:38:00;8.60;99.90
9293;DHT22;69930;48.232;12.384;2024-02-16T08:40:27;8.90;99.90
9293;DHT22;69930;48.232;12.384;2024-02-16T08:42:54;9.20;99.90
9293;DHT22;69930;48.232;12.384;2024-02-16T08:45:22;9.40;99.90
9293;DHT22;69930;48.232;12.384;2024-02-16T08:47:49;9.40;99.90
9293;DHT22;69930;48.232;12.384;2024-02-16T08:50:18;9.50;99.90
9293;DHT22;69930;48.232;12.384;2024-02-16T08:52:45;9.50;99.90
9293;DHT22;69930;48.232;12.384;2024-02-16T08:55:12;9.60;99.90
9293;DHT22;69930;48.232;12.384;2024-02-16T08:57:39;9.90;99.90
9293;DHT22;69930;48.232;12.384;2024-02-16T09:00:07;10.30;99.90
9293;DHT22;69930;48.232;12.384;2024-02-16T09:02:35;10.30;99.90
9293;DHT22;69930;48.232;12.384;2024-02-16T09:05:03;10.40;99.90
9293;DHT22;69930;48.232;12.384;2024-02-16T09:07:31;10.50;99.90
9293;DHT22;69930;48.232;12.384;2024-02-16T09:09:58;10.50;99.90
9293;DHT22;69930;48.232;12.384;2024-02-16T09:12:27;10.60;99.90
9293;DHT22;69930;48.232;12.384;2024-02-16T09:14:54;10.60;99.90
9293;DHT22;69930;48.232;12.384;2024-02-16T09:17:21;10.70;99.90
9293;DHT22;69930;48.232;12.384;2024-02-16T09:19:48;10.80;99.90
9293;DHT22;69930;48.232;12.384;2024-02-16T09:22:15;10.90;99.90
9293;DHT22;69930;48.232;12.384;2024-02-16T09:24:43;10.90;99.90
9293;DHT22;69930;48.232;12.384;2024-02-16T09:27:12;10.80;99.90
9293;DHT22;69930;48.232;12.384;2024-02-16T09:29:39;10.80;99.90
9293;DHT22;69930;48.232;12.384;2024-02-16T09:32:07;10.80;99.90
9293;DHT22;69930;48.232;12.384;2024-02-16T09:34:34;11.00;99.90
9293;DHT22;69930;48.232;12.384;2024-02-16T09:37:01;11.20;99.90
9293;DHT22;69930;48.232;12.384;2024-02-16T09:39:29;11.40;99.90
9293;DHT22;69930;48.232;12.384;2024-02-16T09:41:58;11.80;99.90
9293;DHT22;69930;48.232;12.384;2024-02-16T09:44:25;12.00;99.90
9293;DHT22;69930;48.232;12.384;2024-02-16T09:46:54;12.20;99.90
9293;DHT22;69930;48.232;12.384;2024-02-16T09:49:21;12.30;99.90
9293;DHT22;69930;48.232;12.384;2024-02-16T09:51:48;12.40;99.90
9293;DHT22;69930;48.232;12.384;2024-02-16T09:54:15;12.60;99.90
9293;DHT22;69930;48.232;12.384;2024-02-16T09:56:42;12.70;99.90
9293;DHT22;69930;48.232;12.384;2024-02-16T09:59:12;13.00;99.90
9293;DHT22;69930;48.232;12.384;2024-02-16T10:01:39;13.20;99.90
9293;DHT22;69930;48.232;12.384;2024-02-16T10:04:07;13.60;99.90
9293;DHT22;69930;48.232;12.384;2024-02-16T10:06:46;13.90;99.90
9293;DHT22;69930;48.232;12.384;2024-02-16T10:09:23;14.10;99.90
9293;DHT22;69930;48.232;12.384;2024-02-16T10:11:50;14.30;99.90
9293;DHT22;69930;48.232;12.384;2024-02-16T10:14:19;14.20;99.90
9293;DHT22;69930;48.232;12.384;2024-02-16T10:16:47;14.30;99.90
9293;DHT22;69930;48.232;12.384;2024-02-16T10:19:14;14.30;99.90
9293;DHT22;69930;48.232;12.384;2024-02-16T10:21:44;14.50;99.90
9293;DHT22;69930;48.232;12.384;2024-02-16T10:24:12;14.70;99.90
9293;DHT22;69930;48.232;12.384;2024-02-16T10:26:40;15.00;99.90
9293;DHT22;69930;48.232;12.384;2024-02-16T10:29:09;15.10;99.90
9293;DHT22;69930;48.232;12.384;2024-02-16T10:31:38;15.30;99.90
9293;DHT22;69930;48.232;12.384;2024-02-16T10:34:06;15.60;99.90
9293;DHT22;69930;48.232;12.384;2024-02-16T10:36:36;15.60;99.90
9293;DHT22;69930;48.232;12.384;2024-02-16T10:39:04;15.70;99.90
9293;DHT22;69930;48.232;12.384;2024-02-16T10:41:34;15.80;99.90
9293;DHT22;69930;48.232;12.384;2024-02-16T10:44:02;16.10;99.90
9293;DHT22;69930;48.232;12.384;2024-02-16T10:46:30;16.40;99.90
9293;DHT22;69930;48.232;12.384;2024-02-16T10:48:59;16.70;99.90
9293;DHT22;69930;48.232;12.384;2024-02-16T10:51:33;16.80;99.90
9293;DHT22;69930;48.232;12.384;2024-02-16T10:54:01;17.00;99.90
9293;DHT22;69930;48.232;12.384;2024-02-16T10:56:34;17.30;99.90
9293;DHT22;69930;48.232;12.384;2024-02-16T10:59:03;17.50;99.90
9293;DHT22;69930;48.232;12.384;2024-02-16T11:01:36;17.70;99.90
9293;DHT22;69930;48.232;12.384;2024-02-16T11:04:06;17.90;99.90
9293;DHT22;69930;48.232;12.384;2024-02-16T11:06:48;18.00;99.90
9293;DHT22;69930;48.232;12.384;2024-02-16T11:09:27;17.90;99.90
9293;DHT22;69930;48.232;12.384;2024-02-16T11:11:58;17.90;99.90
9293;DHT22;69930;48.232;12.384;2024-02-16T11:14:34;17.80;99.90
9293;DHT22;69930;48.232;12.384;2024-02-16T11:17:01;17.60;99.90
9293;DHT22;69930;48.232;12.384;2024-02-16T11:19:31;17.40;99.90
9293;DHT22;69930;48.232;12.384;2024-02-16T11:21:58;17.30;99.90
9293;DHT22;69930;48.232;12.384;2024-02-16T11:24:32;17.20;99.90
9293;DHT22;69930;48.232;12.384;2024-02-16T11:27:02;17.10;99.90
9293;DHT22;69930;48.232;12.384;2024-02-16T11:29:35;17.00;99.90
9293;DHT22;69930;48.232;12.384;2024-02-16T11:32:03;17.00;99.90
9293;DHT22;69930;48.232;12.384;2024-02-16T11:34:32;16.90;99.90
9293;DHT22;69930;48.232;12.384;2024-02-16T11:37:00;16.90;99.90
9293;DHT22;69930;48.232;12.384;2024-02-16T11:39:28;16.80;99.90
9293;DHT22;69930;48.232;12.384;2024-02-16T11:41:59;16.80;99.90
9293;DHT22;69930;48.232;12.384;2024-02-16T11:44:27;16.80;99.90
9293;DHT22;69930;48.232;12.384;2024-02-16T11:46:55;16.80;99.90
9293;DHT22;69930;48.232;12.384;2024-02-16T11:49:22;16.80;99.90
9293;DHT22;69930;48.232;12.384;2024-02-16T11:51:50;16.80;99.90
9293;DHT22;69930;48.232;12.384;2024-02-16T11:54:18;16.90;99.90
9293;DHT22;69930;48.232;12.384;2024-02-16T11:56:45;16.80;99.90
9293;DHT22;69930;48.232;12.384;2024-02-16T11:59:13;16.80;99.90
9293;DHT22;69930;48.232;12.384;2024-02-16T12:01:54;16.80;99.90
9293;DHT22;69930;48.232;12.384;2024-02-16T12:04:23;16.80;99.90
9293;DHT22;69930;48.232;12.384;2024-02-16T12:06:54;16.80;99.90
9293;DHT22;69930;48.232;12.384;2024-02-16T12:09:22;16.70;99.90
9293;DHT22;69930;48.232;12.384;2024-02-16T12:11:50;16.70;99.90
9293;DHT22;69930;48.232;12.384;2024-02-16T12:14:18;16.70;99.90
9293;DHT22;69930;48.232;12.384;2024-02-16T12:16:47;16.80;99.90
9293;DHT22;69930;48.232;12.384;2024-02-16T12:19:15;16.80;99.90
9293;DHT22;69930;48.232;12.384;2024-02-16T12:21:42;16.90;99.90
9293;DHT22;69930;48.232;12.384;2024-02-16T12:24:11;16.90;99.90
9293;DHT22;69930;48.232;12.384;2024-02-16T12:26:38;16.90;99.90
9293;DHT22;69930;48.232;12.384;2024-02-16T12:29:07;16.90;99.90
9293;DHT22;69930;48.232;12.384;2024-02-16T12:31:38;16.80;99.90
9293;DHT22;69930;48.232;12.384;2024-02-16T12:34:06;16.80;99.90
9293;DHT22;69930;48.232;12.384;2024-02-16T12:36:33;16.90;99.90
9293;DHT22;69930;48.232;12.384;2024-02-16T12:39:01;16.90;99.90
9293;DHT22;69930;48.232;12.384;2024-02-16T12:41:30;16.90;99.90
9293;DHT22;69930;48.232;12.384;2024-02-16T12:43:57;17.00;99.90
9293;DHT22;69930;48.232;12.384;2024-02-16T12:46:24;17.00;99.90
9293;DHT22;69930;48.232;12.384;2024-02-16T12:48:51;17.00;99.90
9293;DHT22;69930;48.232;12.384;2024-02-16T12:51:19;17.10;99.90
9293;DHT22;69930;48.232;12.384;2024-02-16T12:53:46;17.10;99.90
9293;DHT22;69930;48.232;12.384;2024-02-16T12:56:13;17.10;99.90
9293;DHT22;69930;48.232;12.384;2024-02-16T12:58:41;17.10;99.90
9293;DHT22;69930;48.232;12.384;2024-02-16T13:01:08;17.00;99.90
9293;DHT22;69930;48.232;12.384;2024-02-16T13:03:37;17.00;99.90
9293;DHT22;69930;48.232;12.384;2024-02-16T13:06:06;17.10;99.90
9293;DHT22;69930;48.232;12.384;2024-02-16T13:08:33;17.00;99.90
9293;DHT22;69930;48.232;12.384;2024-02-16T13:11:00;16.90;99.90
9293;DHT22;69930;48.232;12.384;2024-02-16T13:13:27;16.90;99.90
9293;DHT22;69930;48.232;12.384;2024-02-16T13:15:55;17.00;99.90
9293;DHT22;69930;48.232;12.384;2024-02-16T13:18:25;17.00;99.90
9293;DHT22;69930;48.232;12.384;2024-02-16T13:20:52;17.00;99.90
9293;DHT22;69930;48.232;12.384;2024-02-16T13:23:19;17.10;99.90
9293;DHT22;69930;48.232;12.384;2024-02-16T13:25:46;17.30;99.90
9293;DHT22;69930;48.232;12.384;2024-02-16T13:28:13;17.30;99.90
9293;DHT22;69930;48.232;12.384;2024-02-16T13:30:42;17.40;99.90
9293;DHT22;69930;48.232;12.384;2024-02-16T13:33:10;17.30;99.90
9293;DHT22;69930;48.232;12.384;2024-02-16T13:35:37;17.20;99.90
9293;DHT22;69930;48.232;12.384;2024-02-16T13:38:04;17.10;99.90
9293;DHT22;69930;48.232;12.384;2024-02-16T13:40:31;17.10;99.90
9293;DHT22;69930;48.232;12.384;2024-02-16T13:42:59;17.10;99.90
9293;DHT22;69930;48.232;12.384;2024-02-16T13:45:28;17.00;99.90
9293;DHT22;69930;48.232;12.384;2024-02-16T13:47:56;17.00;99.90
9293;DHT22;69930;48.232;12.384;2024-02-16T13:50:25;17.00;99.90
9293;DHT22;69930;48.232;12.384;2024-02-16T13:52:52;16.90;99.90
9293;DHT22;69930;48.232;12.384;2024-02-16T13:55:21;16.90;99.90
9293;DHT22;69930;48.232;12.384;2024-02-16T13:57:48;16.90;99.90
9293;DHT22;69930;48.232;12.384;2024-02-16T14:00:15;16.90;99.90
9293;DHT22;69930;48.232;12.384;2024-02-16T14:02:45;16.90;99.90
9293;DHT22;69930;48.232;12.384;2024-02-16T14:05:12;16.80;99.90
9293;DHT22;69930;48.232;12.384;2024-02-16T14:07:41;16.90;99.90
9293;DHT22;69930;48.232;12.384;2024-02-16T14:10:08;16.90;99.90
9293;DHT22;69930;48.232;12.384;2024-02-16T14:12:36;16.90;99.90
9293;DHT22;69930;48.232;12.384;2024-02-16T14:15:03;16.90;99.90
9293;DHT22;69930;48.232;12.384;2024-02-16T14:17:30;17.00;99.90
9293;DHT22;69930;48.232;12.384;2024-02-16T14:19:57;17.10;99.90
9293;DHT22;69930;48.232;12.384;2024-02-16T14:22:24;17.10;99.90
9293;DHT22;69930;48.232;12.384;2024-02-16T14:24:53;17.10;99.90
9293;DHT22;69930;48.232;12.384;2024-02-16T14:27:20;17.10;99.90
9293;DHT22;69930;48.232;12.384;2024-02-16T14:29:47;17.10;99.90
9293;DHT22;69930;48.232;12.384;2024-02-16T14:32:14;17.10;99.90
9293;DHT22;69930;48.232;12.384;2024-02-16T14:34:41;17.20;99.90
9293;DHT22;69930;48.232;12.384;2024-02-16T14:37:09;17.20;99.90
9293;DHT22;69930;48.232;12.384;2024-02-16T14:39:36;17.20;99.90
9293;DHT22;69930;48.232;12.384;2024-02-16T14:42:05;17.30;99.90
9293;DHT22;69930;48.232;12.384;2024-02-16T14:44:32;17.30;99.90
9293;DHT22;69930;48.232;12.384;2024-02-16T14:46:59;17.50;99.90
9293;DHT22;69930;48.232;12.384;2024-02-16T14:49:26;17.60;99.90
9293;DHT22;69930;48.232;12.384;2024-02-16T14:51:56;17.50;99.90
9293;DHT22;69930;48.232;12.384;2024-02-16T14:54:23;17.50;99.90
9293;DHT22;69930;48.232;12.384;2024-02-16T14:56:51;17.50;99.90
9293;DHT22;69930;48.232;12.384;2024-02-16T14:59:20;17.50;99.90
9293;DHT22;69930;48.232;12.384;2024-02-16T15:01:47;17.40;99.90
9293;DHT22;69930;48.232;12.384;2024-02-16T15:04:14;17.40;99.90
9293;DHT22;69930;48.232;12.384;2024-02-16T15:06:42;17.40;99.90
9293;DHT22;69930;48.232;12.384;2024-02-16T15:09:10;17.40;99.90
9293;DHT22;69930;48.232;12.384;2024-02-16T15:11:37;17.30;99.90
9293;DHT22;69930;48.232;12.384;2024-02-16T15:14:05;17.30;99.90
9293;DHT22;69930;48.232;12.384;2024-02-16T15:16:33;17.30;99.90
9293;DHT22;69930;48.232;12.384;2024-02-16T15:19:00;17.20;99.90
9293;DHT22;69930;48.232;12.384;2024-02-16T15:21:27;17.10;99.90
9293;DHT22;69930;48.232;12.384;2024-02-16T15:23:54;17.10;99.90
9293;DHT22;69930;48.232;12.384;2024-02-16T15:26:21;17.00;99.90
9293;DHT22;69930;48.232;12.384;2024-02-16T15:28:48;17.00;99.90
9293;DHT22;69930;48.232;12.384;2024-02-16T15:31:15;16.90;99.90
9293;DHT22;69930;48.232;12.384;2024-02-16T15:33:44;16.90;99.90
9293;DHT22;69930;48.232;12.384;2024-02-16T15:36:11;16.90;99.90
9293;DHT22;69930;48.232;12.384;2024-02-16T15:38:38;16.80;99.90
9293;DHT22;69930;48.232;12.384;2024-02-16T15:41:05;16.80;99.90
9293;DHT22;69930;48.232;12.384;2024-02-16T15:43:33;16.80;99.90
9293;DHT22;69930;48.232;12.384;2024-02-16T15:46:00;16.80;99.90
9293;DHT22;69930;48.232;12.384;2024-02-16T15:48:27;16.70;99.90
9293;DHT22;69930;48.232;12.384;2024-02-16T15:50:55;16.60;99.90
9293;DHT22;69930;48.232;12.384;2024-02-16T15:53:24;16.60;99.90
9293;DHT22;69930;48.232;12.384;2024-02-16T15:55:51;16.40;99.90
9293;DHT22;69930;48.232;12.384;2024-02-16T15:58:18;16.40;99.90
9293;DHT22;69930;48.232;12.384;2024-02-16T16:00:45;16.40;99.90
9293;DHT22;69930;48.232;12.384;2024-02-16T16:03:12;16.30;99.90
9293;DHT22;69930;48.232;12.384;2024-02-16T16:05:39;16.30;99.90
9293;DHT22;69930;48.232;12.384;2024-02-16T16:08:07;16.20;99.90
9293;DHT22;69930;48.232;12.384;2024-02-16T16:10:34;16.20;99.90
9293;DHT22;69930;48.232;12.384;2024-02-16T16:13:02;16.10;99.90
9293;DHT22;69930;48.232;12.384;2024-02-16T16:15:34;16.00;99.90
9293;DHT22;69930;48.232;12.384;2024-02-16T16:18:01;15.90;99.90
9293;DHT22;69930;48.232;12.384;2024-02-16T16:20:28;15.80;99.90
9293;DHT22;69930;48.232;12.384;2024-02-16T16:22:55;15.70;99.90
9293;DHT22;69930;48.232;12.384;2024-02-16T16:25:23;15.60;99.90
9293;DHT22;69930;48.232;12.384;2024-02-16T16:27:50;15.50;99.90
9293;DHT22;69930;48.232;12.384;2024-02-16T16:30:17;15.40;99.90
9293;DHT22;69930;48.232;12.384;2024-02-16T16:32:44;15.30;99.90
9293;DHT22;69930;48.232;12.384;2024-02-16T16:35:12;15.20;99.90
9293;DHT22;69930;48.232;12.384;2024-02-16T16:37:39;15.10;99.90
9293;DHT22;69930;48.232;12.384;2024-02-16T16:40:07;15.00;99.90
9293;DHT22;69930;48.232;12.384;2024-02-16T16:42:36;14.90;99.90
9293;DHT22;69930;48.232;12.384;2024-02-16T17:55:55;12.60;99.90
9293;DHT22;69930;48.232;12.384;2024-02-16T17:58:23;12.50;99.90
9293;DHT22;69930;48.232;12.384;2024-02-16T18:00:50;12.50;99.90
9293;DHT22;69930;48.232;12.384;2024-02-16T18:03:17;12.40;99.90
9293;DHT22;69930;48.232;12.384;2024-02-16T18:05:44;12.50;99.90
9293;DHT22;69930;48.232;12.384;2024-02-16T18:08:11;12.40;99.90
9293;DHT22;69930;48.232;12.384;2024-02-16T18:10:38;12.40;99.90
9293;DHT22;69930;48.232;12.384;2024-02-16T18:13:06;12.30;99.90
9293;DHT22;69930;48.232;12.384;2024-02-16T18:15:33;12.20;99.90
9293;DHT22;69930;48.232;12.384;2024-02-16T18:18:01;12.20;99.90
9293;DHT22;69930;48.232;12.384;2024-02-16T18:20:28;12.20;99.90
9293;DHT22;69930;48.232;12.384;2024-02-16T18:22:55;12.10;99.90
9293;DHT22;69930;48.232;12.384;2024-02-16T18:25:22;12.00;99.90
9293;DHT22;69930;48.232;12.384;2024-02-16T18:27:52;12.00;99.90
9293;DHT22;69930;48.232;12.384;2024-02-16T18:30:21;12.00;99.90
9293;DHT22;69930;48.232;12.384;2024-02-16T18:32:48;12.00;99.90
9293;DHT22;69930;48.232;12.384;2024-02-16T18:35:15;12.00;99.90
9293;DHT22;69930;48.232;12.384;2024-02-16T18:37:42;12.00;99.90
9293;DHT22;69930;48.232;12.384;2024-02-16T18:40:10;12.00;99.90
9293;DHT22;69930;48.232;12.384;2024-02-16T18:42:37;12.10;99.90
9293;DHT22;69930;48.232;12.384;2024-02-16T18:45:05;12.10;99.90
9293;DHT22;69930;48.232;12.384;2024-02-16T18:47:36;12.10;99.90
9293;DHT22;69930;48.232;12.384;2024-02-16T18:50:03;12.20;99.90
9293;DHT22;69930;48.232;12.384;2024-02-16T18:52:31;12.30;99.90
9293;DHT22;69930;48.232;12.384;2024-02-16T18:54:58;12.30;99.90
9293;DHT22;69930;48.232;12.384;2024-02-16T18:57:25;12.40;99.90
9293;DHT22;69930;48.232;12.384;2024-02-16T18:59:53;12.30;99.90
9293;DHT22;69930;48.232;12.384;2024-02-16T19:02:20;12.30;99.90
9293;DHT22;69930;48.232;12.384;2024-02-16T19:04:49;12.30;99.90
9293;DHT22;69930;48.232;12.384;2024-02-16T19:07:16;12.30;99.90
9293;DHT22;69930;48.232;12.384;2024-02-16T19:09:44;12.30;99.90
9293;DHT22;69930;48.232;12.384;2024-02-16T19:12:12;12.30;99.90
9293;DHT22;69930;48.232;12.384;2024-02-16T19:14:40;12.20;99.90
9293;DHT22;69930;48.232;12.384;2024-02-16T19:17:07;12.20;99.90
9293;DHT22;69930;48.232;12.384;2024-02-16T19:19:34;12.20;99.90
9293;DHT22;69930;48.232;12.384;2024-02-16T19:22:03;12.20;99.90
9293;DHT22;69930;48.232;12.384;2024-02-16T19:24:30;12.20;99.90
9293;DHT22;69930;48.232;12.384;2024-02-16T19:26:57;12.20;99.90
9293;DHT22;69930;48.232;12.384;2024-02-16T19:29:25;12.20;99.90
9293;DHT22;69930;48.232;12.384;2024-02-16T19:31:52;12.20;99.90
9293;DHT22;69930;48.232;12.384;2024-02-16T19:34:20;12.30;99.90
9293;DHT22;69930;48.232;12.384;2024-02-16T19:36:47;12.20;99.90
9293;DHT22;69930;48.232;12.384;2024-02-16T19:39:15;12.30;99.90
9293;DHT22;69930;48.232;12.384;2024-02-16T19:41:49;12.20;99.90
9293;DHT22;69930;48.232;12.384;2024-02-16T19:44:16;12.20;99.90
9293;DHT22;69930;48.232;12.384;2024-02-16T19:46:44;12.20;99.90
9293;DHT22;69930;48.232;12.384;2024-02-16T19:49:11;12.10;99.90
9293;DHT22;69930;48.232;12.384;2024-02-16T19:51:39;12.10;99.90
9293;DHT22;69930;48.232;12.384;2024-02-16T19:54:06;12.10;99.90
9293;DHT22;69930;48.232;12.384;2024-02-16T19:56:34;12.10;99.90
9293;DHT22;69930;48.232;12.384;2024-02-16T19:59:02;12.10;99.90
9293;DHT22;69930;48.232;12.384;2024-02-16T20:01:29;12.10;99.90
9293;DHT22;69930;48.232;12.384;2024-02-16T20:03:57;12.20;99.90
9293;DHT22;69930;48.232;12.384;2024-02-16T20:06:24;12.20;99.90
9293;DHT22;69930;48.232;12.384;2024-02-16T20:08:54;12.20;99.90
9293;DHT22;69930;48.232;12.384;2024-02-16T20:11:21;12.20;99.90
9293;DHT22;69930;48.232;12.384;2024-02-16T20:13:50;12.20;99.90
9293;DHT22;69930;48.232;12.384;2024-02-16T20:16:20;12.20;99.90
9293;DHT22;69930;48.232;12.384;2024-02-16T20:18:49;12.10;99.90
9293;DHT22;69930;48.232;12.384;2024-02-16T20:21:17;12.10;99.90